Bradyville, Ohio
Current Conditions -  °F | °C
As of 7:15 AM on Sunday 25 Jan 2015 (Local Time) from KFGX Reporting Station
Clear Clear  
Wind Chill: 27°   Ceiling: Unl
Heat Index: 34°   Visibility: 10mi
Dew Point: 30°   Wind: 8mph
Humidity: 87%   Direction: 190°S
Pressure: 29.77"   Gusts: NA
Location:  38.7042°N, 83.6081°W
Report Text: KFGX 251215Z AUTO 19007KT 10SM CLR 01/M01 A2977 RMK AO2 T00101010
Loading
Personal Weather Stations






























Interactive Weather Map New forecast layout! Learn more

10-Day Weather Forecast

Advertisements
Track Severe Weather on mobile